Página principal
METAR-TAF:

METAR-TAF

Aeroportos :

Aeroporto de Paris-Charles de Gaulle

Paris-Charles De Gaulle, França

latitude: 49-01N, longitude: 002-32E, altura: 118 m

Observação actual do tempo

O boletim foi feito há 32 minutos, às 11:00 UTC
Vento 7 kt de nordeste, variando entre nor-noroeste e este
Temperatura 25°C
Humidade 44%
Pressão 1024 hPa
Visibilidade 10 km ou mais
sem nuvens abaixo de 1500 metros e sem cumulonimbus

METAR: LFPG 231100Z 04007KT 330V080 CAVOK 25/12 Q1024 NOSIG

Hora: 13:32 (11:32 UTC)

Previsão

O boletim foi feito há 6 horas e 32 minutos, às 05:00 UTC
Previsão válida de 23 às 06 UTC a 24 às 12 UTC
Vento 7 kt de nordeste
Visibilidade 10 km ou mais
sem nuvens abaixo de 1500 metros e sem cumulonimbus

TAF: LFPG 230500Z 2306/2412 04007KT CAVOK TX28/2315Z TN14/2306Z

Observações e previsões do tempo de mais de 4000 aeroportos (mensagens METAR e TAF).

As estações disponíveis são os pontos amarelos e vermelhos sobre o mapa.

Mova o rato sobre o mapa para ver o nome da estação.

Depois clique no ponto para visualizar as observações e previsões meteorológicas.

Para alterar o mapa : clique nos botões verdes com uma cruz preta para aumentar o zoom; no botão verde com uma pitada de zoom; ou nas setas verdes para mapas adjacentes.


METAR-TAF: